sensor_id;sensor_type;location;lat;lon;timestamp;P1;durP1;ratioP1;P2;durP2;ratioP2
24663;SDS011;12791;50.992;13.788;2023-09-19T00:00:15;3.75;;;3.45;;
24663;SDS011;12791;50.992;13.788;2023-09-19T00:02:44;4.57;;;4.13;;
24663;SDS011;12791;50.992;13.788;2023-09-19T00:05:12;4.97;;;4.57;;
24663;SDS011;12791;50.992;13.788;2023-09-19T00:07:39;5.60;;;4.30;;
24663;SDS011;12791;50.992;13.788;2023-09-19T00:10:06;3.72;;;3.20;;
24663;SDS011;12791;50.992;13.788;2023-09-19T00:12:35;4.82;;;4.18;;
24663;SDS011;12791;50.992;13.788;2023-09-19T00:15:03;4.07;;;3.78;;
24663;SDS011;12791;50.992;13.788;2023-09-19T00:17:31;4.60;;;4.20;;
24663;SDS011;12791;50.992;13.788;2023-09-19T00:19:59;4.50;;;4.10;;
24663;SDS011;12791;50.992;13.788;2023-09-19T00:22:39;6.32;;;5.82;;
24663;SDS011;12791;50.992;13.788;2023-09-19T00:25:07;6.10;;;5.53;;
24663;SDS011;12791;50.992;13.788;2023-09-19T00:27:34;6.57;;;5.82;;
24663;SDS011;12791;50.992;13.788;2023-09-19T00:30:07;5.93;;;5.43;;
24663;SDS011;12791;50.992;13.788;2023-09-19T00:32:41;5.15;;;4.75;;
24663;SDS011;12791;50.992;13.788;2023-09-19T00:35:08;5.93;;;5.13;;
24663;SDS011;12791;50.992;13.788;2023-09-19T00:37:36;5.00;;;4.60;;
24663;SDS011;12791;50.992;13.788;2023-09-19T00:40:05;6.38;;;5.15;;
24663;SDS011;12791;50.992;13.788;2023-09-19T00:42:37;4.63;;;4.23;;
24663;SDS011;12791;50.992;13.788;2023-09-19T00:45:05;4.18;;;3.88;;
24663;SDS011;12791;50.992;13.788;2023-09-19T00:47:36;4.90;;;4.05;;
24663;SDS011;12791;50.992;13.788;2023-09-19T00:50:04;4.78;;;4.07;;
24663;SDS011;12791;50.992;13.788;2023-09-19T00:52:33;5.80;;;5.05;;
24663;SDS011;12791;50.992;13.788;2023-09-19T00:55:02;4.88;;;4.43;;
24663;SDS011;12791;50.992;13.788;2023-09-19T00:57:30;5.78;;;5.07;;
24663;SDS011;12791;50.992;13.788;2023-09-19T00:59:58;5.32;;;4.82;;
24663;SDS011;12791;50.992;13.788;2023-09-19T01:02:32;4.65;;;4.25;;
24663;SDS011;12791;50.992;13.788;2023-09-19T01:04:59;5.63;;;4.80;;
24663;SDS011;12791;50.992;13.788;2023-09-19T01:07:26;5.28;;;4.88;;
24663;SDS011;12791;50.992;13.788;2023-09-19T01:09:55;5.20;;;4.80;;
24663;SDS011;12791;50.992;13.788;2023-09-19T01:12:26;6.90;;;4.55;;
24663;SDS011;12791;50.992;13.788;2023-09-19T01:15:02;4.50;;;3.97;;
24663;SDS011;12791;50.992;13.788;2023-09-19T01:17:40;5.45;;;4.07;;
24663;SDS011;12791;50.992;13.788;2023-09-19T01:20:17;4.43;;;4.05;;
24663;SDS011;12791;50.992;13.788;2023-09-19T01:22:55;6.07;;;4.10;;
24663;SDS011;12791;50.992;13.788;2023-09-19T01:28:29;3.90;;;3.47;;
24663;SDS011;12791;50.992;13.788;2023-09-19T01:31:03;5.53;;;4.20;;
24663;SDS011;12791;50.992;13.788;2023-09-19T01:36:24;4.45;;;4.05;;
24663;SDS011;12791;50.992;13.788;2023-09-19T01:38:52;5.90;;;5.40;;
24663;SDS011;12791;50.992;13.788;2023-09-19T01:41:21;5.63;;;5.13;;
24663;SDS011;12791;50.992;13.788;2023-09-19T01:43:54;4.90;;;4.50;;
24663;SDS011;12791;50.992;13.788;2023-09-19T01:46:25;6.00;;;5.30;;
24663;SDS011;12791;50.992;13.788;2023-09-19T01:49:04;8.77;;;5.53;;
24663;SDS011;12791;50.992;13.788;2023-09-19T01:51:42;5.78;;;5.18;;
24663;SDS011;12791;50.992;13.788;2023-09-19T01:54:18;6.03;;;5.38;;
24663;SDS011;12791;50.992;13.788;2023-09-19T01:56:52;5.93;;;5.40;;
24663;SDS011;12791;50.992;13.788;2023-09-19T01:59:28;7.10;;;6.40;;
24663;SDS011;12791;50.992;13.788;2023-09-19T02:02:03;9.55;;;7.07;;
24663;SDS011;12791;50.992;13.788;2023-09-19T02:04:32;7.38;;;6.68;;
24663;SDS011;12791;50.992;13.788;2023-09-19T02:07:00;7.03;;;6.30;;
24663;SDS011;12791;50.992;13.788;2023-09-19T02:09:27;8.07;;;7.28;;
24663;SDS011;12791;50.992;13.788;2023-09-19T02:11:54;7.18;;;6.45;;
24663;SDS011;12791;50.992;13.788;2023-09-19T02:14:22;8.07;;;7.40;;
24663;SDS011;12791;50.992;13.788;2023-09-19T02:16:49;8.63;;;6.90;;
24663;SDS011;12791;50.992;13.788;2023-09-19T02:19:17;6.35;;;5.85;;
24663;SDS011;12791;50.992;13.788;2023-09-19T02:21:46;12.38;;;7.38;;
24663;SDS011;12791;50.992;13.788;2023-09-19T02:24:13;8.45;;;7.45;;
24663;SDS011;12791;50.992;13.788;2023-09-19T02:26:41;6.80;;;6.28;;
24663;SDS011;12791;50.992;13.788;2023-09-19T02:29:09;7.55;;;6.78;;
24663;SDS011;12791;50.992;13.788;2023-09-19T02:31:38;6.88;;;6.13;;
24663;SDS011;12791;50.992;13.788;2023-09-19T02:34:08;7.13;;;6.45;;
24663;SDS011;12791;50.992;13.788;2023-09-19T02:36:37;6.63;;;6.10;;
24663;SDS011;12791;50.992;13.788;2023-09-19T02:39:04;6.70;;;6.10;;
24663;SDS011;12791;50.992;13.788;2023-09-19T02:41:33;7.43;;;6.40;;
24663;SDS011;12791;50.992;13.788;2023-09-19T02:44:00;6.10;;;5.60;;
24663;SDS011;12791;50.992;13.788;2023-09-19T02:46:27;7.38;;;6.63;;
24663;SDS011;12791;50.992;13.788;2023-09-19T02:48:55;6.38;;;5.75;;
24663;SDS011;12791;50.992;13.788;2023-09-19T02:51:22;8.00;;;6.40;;
24663;SDS011;12791;50.992;13.788;2023-09-19T02:53:50;7.90;;;7.13;;
24663;SDS011;12791;50.992;13.788;2023-09-19T02:56:19;8.77;;;6.68;;
24663;SDS011;12791;50.992;13.788;2023-09-19T02:58:47;7.13;;;6.50;;
24663;SDS011;12791;50.992;13.788;2023-09-19T03:01:14;6.50;;;6.00;;
24663;SDS011;12791;50.992;13.788;2023-09-19T03:03:43;8.18;;;7.38;;
24663;SDS011;12791;50.992;13.788;2023-09-19T03:06:11;7.50;;;6.85;;
24663;SDS011;12791;50.992;13.788;2023-09-19T03:08:38;6.97;;;6.28;;
24663;SDS011;12791;50.992;13.788;2023-09-19T03:11:08;6.85;;;6.15;;
24663;SDS011;12791;50.992;13.788;2023-09-19T03:13:36;10.02;;;7.55;;
24663;SDS011;12791;50.992;13.788;2023-09-19T03:16:04;7.93;;;7.18;;
24663;SDS011;12791;50.992;13.788;2023-09-19T03:18:32;7.47;;;6.78;;
24663;SDS011;12791;50.992;13.788;2023-09-19T03:21:00;9.70;;;8.70;;
24663;SDS011;12791;50.992;13.788;2023-09-19T03:23:27;8.43;;;7.68;;
24663;SDS011;12791;50.992;13.788;2023-09-19T03:25:55;9.70;;;7.97;;
24663;SDS011;12791;50.992;13.788;2023-09-19T03:28:25;8.20;;;7.40;;
24663;SDS011;12791;50.992;13.788;2023-09-19T03:30:59;8.15;;;7.38;;
24663;SDS011;12791;50.992;13.788;2023-09-19T03:33:27;8.48;;;7.68;;
24663;SDS011;12791;50.992;13.788;2023-09-19T03:35:56;7.00;;;6.35;;
24663;SDS011;12791;50.992;13.788;2023-09-19T03:38:24;8.23;;;7.45;;
24663;SDS011;12791;50.992;13.788;2023-09-19T03:40:51;5.97;;;5.57;;
24663;SDS011;12791;50.992;13.788;2023-09-19T03:43:18;10.00;;;6.63;;
24663;SDS011;12791;50.992;13.788;2023-09-19T03:45:46;7.10;;;4.95;;
24663;SDS011;12791;50.992;13.788;2023-09-19T03:48:14;2.22;;;2.03;;
24663;SDS011;12791;50.992;13.788;2023-09-19T03:50:41;1.92;;;1.33;;
24663;SDS011;12791;50.992;13.788;2023-09-19T03:53:09;1.98;;;0.80;;
24663;SDS011;12791;50.992;13.788;2023-09-19T03:55:36;1.38;;;0.93;;
24663;SDS011;12791;50.992;13.788;2023-09-19T03:58:03;1.27;;;0.80;;
24663;SDS011;12791;50.992;13.788;2023-09-19T04:00:31;1.00;;;0.60;;
24663;SDS011;12791;50.992;13.788;2023-09-19T04:03:00;1.42;;;0.85;;
24663;SDS011;12791;50.992;13.788;2023-09-19T04:05:31;0.82;;;0.55;;
24663;SDS011;12791;50.992;13.788;2023-09-19T04:07:58;0.65;;;0.65;;
24663;SDS011;12791;50.992;13.788;2023-09-19T04:10:25;1.08;;;0.60;;
24663;SDS011;12791;50.992;13.788;2023-09-19T04:12:53;1.48;;;0.60;;
24663;SDS011;12791;50.992;13.788;2023-09-19T04:15:21;1.85;;;0.82;;
24663;SDS011;12791;50.992;13.788;2023-09-19T04:17:48;0.60;;;0.57;;
24663;SDS011;12791;50.992;13.788;2023-09-19T04:20:17;0.63;;;0.52;;
24663;SDS011;12791;50.992;13.788;2023-09-19T04:22:44;2.55;;;0.70;;
24663;SDS011;12791;50.992;13.788;2023-09-19T04:25:12;0.52;;;0.52;;
24663;SDS011;12791;50.992;13.788;2023-09-19T04:27:39;1.40;;;0.68;;
24663;SDS011;12791;50.992;13.788;2023-09-19T04:30:08;1.05;;;0.60;;
24663;SDS011;12791;50.992;13.788;2023-09-19T04:32:37;1.25;;;0.75;;
24663;SDS011;12791;50.992;13.788;2023-09-19T04:35:05;1.08;;;0.90;;
24663;SDS011;12791;50.992;13.788;2023-09-19T04:37:36;0.70;;;0.65;;
24663;SDS011;12791;50.992;13.788;2023-09-19T04:40:05;0.88;;;0.65;;
24663;SDS011;12791;50.992;13.788;2023-09-19T04:42:37;0.60;;;0.60;;
24663;SDS011;12791;50.992;13.788;2023-09-19T04:45:05;0.75;;;0.60;;
24663;SDS011;12791;50.992;13.788;2023-09-19T04:47:34;1.73;;;0.65;;
24663;SDS011;12791;50.992;13.788;2023-09-19T04:50:05;2.13;;;0.70;;
24663;SDS011;12791;50.992;13.788;2023-09-19T04:52:38;0.80;;;0.65;;
24663;SDS011;12791;50.992;13.788;2023-09-19T04:55:07;1.48;;;0.70;;
24663;SDS011;12791;50.992;13.788;2023-09-19T04:57:35;0.90;;;0.77;;
24663;SDS011;12791;50.992;13.788;2023-09-19T05:00:04;0.68;;;0.68;;
24663;SDS011;12791;50.992;13.788;2023-09-19T05:02:37;0.88;;;0.60;;
24663;SDS011;12791;50.992;13.788;2023-09-19T05:05:06;1.38;;;0.60;;
24663;SDS011;12791;50.992;13.788;2023-09-19T05:07:33;0.80;;;0.60;;
24663;SDS011;12791;50.992;13.788;2023-09-19T05:10:02;1.27;;;0.73;;
24663;SDS011;12791;50.992;13.788;2023-09-19T05:12:32;0.70;;;0.70;;
24663;SDS011;12791;50.992;13.788;2023-09-19T05:15:01;2.15;;;0.73;;
24663;SDS011;12791;50.992;13.788;2023-09-19T05:17:29;0.70;;;0.57;;
24663;SDS011;12791;50.992;13.788;2023-09-19T05:19:56;0.60;;;0.60;;
24663;SDS011;12791;50.992;13.788;2023-09-19T05:22:26;1.75;;;0.82;;
24663;SDS011;12791;50.992;13.788;2023-09-19T05:24:53;0.70;;;0.60;;
24663;SDS011;12791;50.992;13.788;2023-09-19T05:27:24;1.10;;;0.70;;
24663;SDS011;12791;50.992;13.788;2023-09-19T05:29:51;1.30;;;0.75;;
24663;SDS011;12791;50.992;13.788;2023-09-19T05:32:18;1.23;;;0.73;;
24663;SDS011;12791;50.992;13.788;2023-09-19T05:34:46;2.58;;;0.73;;
24663;SDS011;12791;50.992;13.788;2023-09-19T05:37:24;1.10;;;0.63;;
24663;SDS011;12791;50.992;13.788;2023-09-19T05:39:51;0.80;;;0.60;;
24663;SDS011;12791;50.992;13.788;2023-09-19T05:42:18;1.15;;;0.60;;
24663;SDS011;12791;50.992;13.788;2023-09-19T05:44:47;0.70;;;0.70;;
24663;SDS011;12791;50.992;13.788;2023-09-19T05:47:23;0.70;;;0.70;;
24663;SDS011;12791;50.992;13.788;2023-09-19T05:49:52;1.35;;;0.60;;
24663;SDS011;12791;50.992;13.788;2023-09-19T05:52:19;1.88;;;0.90;;
24663;SDS011;12791;50.992;13.788;2023-09-19T05:54:47;0.50;;;0.50;;
24663;SDS011;12791;50.992;13.788;2023-09-19T05:57:18;1.10;;;0.60;;
24663;SDS011;12791;50.992;13.788;2023-09-19T05:59:46;0.88;;;0.60;;
24663;SDS011;12791;50.992;13.788;2023-09-19T06:02:18;1.50;;;0.50;;
24663;SDS011;12791;50.992;13.788;2023-09-19T06:04:45;0.77;;;0.77;;
24663;SDS011;12791;50.992;13.788;2023-09-19T06:07:15;0.80;;;0.77;;
24663;SDS011;12791;50.992;13.788;2023-09-19T06:09:48;0.63;;;0.60;;
24663;SDS011;12791;50.992;13.788;2023-09-19T06:12:15;1.90;;;0.77;;
24663;SDS011;12791;50.992;13.788;2023-09-19T06:14:42;1.48;;;0.90;;
24663;SDS011;12791;50.992;13.788;2023-09-19T06:17:10;1.55;;;1.00;;
24663;SDS011;12791;50.992;13.788;2023-09-19T06:19:37;3.30;;;1.02;;
24663;SDS011;12791;50.992;13.788;2023-09-19T06:22:10;1.65;;;0.77;;
24663;SDS011;12791;50.992;13.788;2023-09-19T06:24:37;1.70;;;0.73;;
24663;SDS011;12791;50.992;13.788;2023-09-19T06:27:13;1.73;;;0.80;;
24663;SDS011;12791;50.992;13.788;2023-09-19T06:29:41;1.55;;;0.70;;
24663;SDS011;12791;50.992;13.788;2023-09-19T06:32:08;1.63;;;0.68;;
24663;SDS011;12791;50.992;13.788;2023-09-19T06:34:36;2.38;;;0.70;;
24663;SDS011;12791;50.992;13.788;2023-09-19T06:37:03;3.22;;;0.60;;
24663;SDS011;12791;50.992;13.788;2023-09-19T06:39:31;1.15;;;0.75;;
24663;SDS011;12791;50.992;13.788;2023-09-19T06:42:00;1.52;;;0.68;;
24663;SDS011;12791;50.992;13.788;2023-09-19T06:44:27;0.80;;;0.65;;
24663;SDS011;12791;50.992;13.788;2023-09-19T06:46:57;0.77;;;0.65;;
24663;SDS011;12791;50.992;13.788;2023-09-19T06:49:24;0.85;;;0.80;;
24663;SDS011;12791;50.992;13.788;2023-09-19T06:51:52;1.63;;;0.60;;
24663;SDS011;12791;50.992;13.788;2023-09-19T06:54:23;0.77;;;0.68;;
24663;SDS011;12791;50.992;13.788;2023-09-19T06:56:53;0.65;;;0.60;;
24663;SDS011;12791;50.992;13.788;2023-09-19T06:59:26;0.80;;;0.70;;
24663;SDS011;12791;50.992;13.788;2023-09-19T07:01:53;0.82;;;0.60;;
24663;SDS011;12791;50.992;13.788;2023-09-19T07:04:20;0.50;;;0.50;;
24663;SDS011;12791;50.992;13.788;2023-09-19T07:06:49;0.68;;;0.68;;
24663;SDS011;12791;50.992;13.788;2023-09-19T07:09:17;0.57;;;0.57;;
24663;SDS011;12791;50.992;13.788;2023-09-19T07:11:45;0.85;;;0.50;;
24663;SDS011;12791;50.992;13.788;2023-09-19T07:14:13;1.35;;;0.65;;
24663;SDS011;12791;50.992;13.788;2023-09-19T07:16:40;1.20;;;0.60;;
24663;SDS011;12791;50.992;13.788;2023-09-19T07:19:09;0.60;;;0.60;;
24663;SDS011;12791;50.992;13.788;2023-09-19T07:21:36;2.05;;;0.60;;
24663;SDS011;12791;50.992;13.788;2023-09-19T07:24:04;2.10;;;0.50;;
24663;SDS011;12791;50.992;13.788;2023-09-19T07:26:34;0.57;;;0.50;;
24663;SDS011;12791;50.992;13.788;2023-09-19T07:29:01;1.40;;;0.60;;
24663;SDS011;12791;50.992;13.788;2023-09-19T07:31:28;0.70;;;0.50;;
24663;SDS011;12791;50.992;13.788;2023-09-19T07:33:56;0.55;;;0.55;;
24663;SDS011;12791;50.992;13.788;2023-09-19T07:36:23;2.35;;;0.60;;
24663;SDS011;12791;50.992;13.788;2023-09-19T07:38:50;1.75;;;0.60;;
24663;SDS011;12791;50.992;13.788;2023-09-19T07:41:17;1.77;;;0.70;;
24663;SDS011;12791;50.992;13.788;2023-09-19T07:43:46;0.70;;;0.55;;
24663;SDS011;12791;50.992;13.788;2023-09-19T07:46:12;0.60;;;0.50;;
24663;SDS011;12791;50.992;13.788;2023-09-19T07:48:39;0.63;;;0.60;;
24663;SDS011;12791;50.992;13.788;2023-09-19T07:51:27;1.35;;;0.80;;
24663;SDS011;12791;50.992;13.788;2023-09-19T07:54:01;2.65;;;0.73;;
24663;SDS011;12791;50.992;13.788;2023-09-19T07:56:28;0.88;;;0.43;;
24663;SDS011;12791;50.992;13.788;2023-09-19T07:58:58;1.27;;;0.50;;
24663;SDS011;12791;50.992;13.788;2023-09-19T08:01:28;1.63;;;0.50;;
24663;SDS011;12791;50.992;13.788;2023-09-19T08:03:55;1.00;;;0.50;;
24663;SDS011;12791;50.992;13.788;2023-09-19T08:06:22;0.88;;;0.50;;
24663;SDS011;12791;50.992;13.788;2023-09-19T08:08:50;0.80;;;0.63;;
24663;SDS011;12791;50.992;13.788;2023-09-19T08:11:18;1.02;;;0.60;;
24663;SDS011;12791;50.992;13.788;2023-09-19T08:13:49;0.85;;;0.50;;
24663;SDS011;12791;50.992;13.788;2023-09-19T08:16:18;2.10;;;0.70;;
24663;SDS011;12791;50.992;13.788;2023-09-19T08:18:47;1.23;;;0.60;;
24663;SDS011;12791;50.992;13.788;2023-09-19T08:21:20;1.60;;;0.50;;
24663;SDS011;12791;50.992;13.788;2023-09-19T08:23:56;0.55;;;0.50;;
24663;SDS011;12791;50.992;13.788;2023-09-19T08:26:26;1.15;;;0.40;;
24663;SDS011;12791;50.992;13.788;2023-09-19T08:28:57;3.25;;;0.40;;
24663;SDS011;12791;50.992;13.788;2023-09-19T08:31:31;1.15;;;0.50;;
24663;SDS011;12791;50.992;13.788;2023-09-19T08:33:58;0.55;;;0.50;;
24663;SDS011;12791;50.992;13.788;2023-09-19T08:36:25;1.17;;;0.50;;
24663;SDS011;12791;50.992;13.788;2023-09-19T08:38:52;1.38;;;0.47;;
24663;SDS011;12791;50.992;13.788;2023-09-19T08:41:29;2.35;;;0.60;;
24663;SDS011;12791;50.992;13.788;2023-09-19T08:43:58;1.23;;;0.50;;
24663;SDS011;12791;50.992;13.788;2023-09-19T08:46:35;1.00;;;0.60;;
24663;SDS011;12791;50.992;13.788;2023-09-19T08:49:08;0.60;;;0.60;;
24663;SDS011;12791;50.992;13.788;2023-09-19T08:51:44;1.23;;;0.60;;
24663;SDS011;12791;50.992;13.788;2023-09-19T08:54:15;1.58;;;0.50;;
24663;SDS011;12791;50.992;13.788;2023-09-19T08:56:54;0.47;;;0.47;;
24663;SDS011;12791;50.992;13.788;2023-09-19T08:59:30;0.88;;;0.50;;
24663;SDS011;12791;50.992;13.788;2023-09-19T09:02:01;0.50;;;0.50;;
24663;SDS011;12791;50.992;13.788;2023-09-19T09:04:30;0.98;;;0.60;;
24663;SDS011;12791;50.992;13.788;2023-09-19T09:06:57;1.98;;;0.70;;
24663;SDS011;12791;50.992;13.788;2023-09-19T09:09:24;1.35;;;0.50;;
24663;SDS011;12791;50.992;13.788;2023-09-19T09:11:51;1.00;;;0.40;;
24663;SDS011;12791;50.992;13.788;2023-09-19T09:14:24;0.63;;;0.50;;
24663;SDS011;12791;50.992;13.788;2023-09-19T09:16:51;1.20;;;0.50;;
24663;SDS011;12791;50.992;13.788;2023-09-19T09:19:23;2.55;;;0.60;;
24663;SDS011;12791;50.992;13.788;2023-09-19T09:21:50;0.70;;;0.60;;
24663;SDS011;12791;50.992;13.788;2023-09-19T09:27:04;0.50;;;0.50;;
24663;SDS011;12791;50.992;13.788;2023-09-19T09:29:41;2.67;;;0.45;;
24663;SDS011;12791;50.992;13.788;2023-09-19T09:32:19;0.60;;;0.60;;
24663;SDS011;12791;50.992;13.788;2023-09-19T09:34:49;0.65;;;0.50;;
24663;SDS011;12791;50.992;13.788;2023-09-19T09:37:18;2.17;;;0.60;;
24663;SDS011;12791;50.992;13.788;2023-09-19T09:39:49;1.02;;;0.55;;
24663;SDS011;12791;50.992;13.788;2023-09-19T09:42:29;1.00;;;0.70;;
24663;SDS011;12791;50.992;13.788;2023-09-19T09:45:16;1.10;;;0.50;;
24663;SDS011;12791;50.992;13.788;2023-09-19T09:47:44;1.05;;;0.45;;
24663;SDS011;12791;50.992;13.788;2023-09-19T09:50:27;1.05;;;0.43;;
24663;SDS011;12791;50.992;13.788;2023-09-19T09:53:22;1.10;;;0.60;;
24663;SDS011;12791;50.992;13.788;2023-09-19T09:55:58;0.70;;;0.40;;
24663;SDS011;12791;50.992;13.788;2023-09-19T09:58:31;1.45;;;0.45;;
24663;SDS011;12791;50.992;13.788;2023-09-19T10:01:00;0.50;;;0.50;;
24663;SDS011;12791;50.992;13.788;2023-09-19T10:03:34;0.77;;;0.60;;
24663;SDS011;12791;50.992;13.788;2023-09-19T10:06:06;1.42;;;0.50;;
24663;SDS011;12791;50.992;13.788;2023-09-19T10:09:03;1.00;;;0.40;;
24663;SDS011;12791;50.992;13.788;2023-09-19T10:11:38;0.40;;;0.40;;
24663;SDS011;12791;50.992;13.788;2023-09-19T10:14:09;0.80;;;0.50;;
24663;SDS011;12791;50.992;13.788;2023-09-19T10:16:38;0.40;;;0.40;;
24663;SDS011;12791;50.992;13.788;2023-09-19T10:19:11;0.65;;;0.50;;
24663;SDS011;12791;50.992;13.788;2023-09-19T10:21:43;1.20;;;0.50;;
24663;SDS011;12791;50.992;13.788;2023-09-19T10:24:11;1.35;;;0.50;;
24663;SDS011;12791;50.992;13.788;2023-09-19T10:26:41;0.98;;;0.55;;
24663;SDS011;12791;50.992;13.788;2023-09-19T10:29:10;0.40;;;0.40;;
24663;SDS011;12791;50.992;13.788;2023-09-19T10:31:41;1.25;;;0.50;;
24663;SDS011;12791;50.992;13.788;2023-09-19T10:34:12;0.80;;;0.50;;
24663;SDS011;12791;50.992;13.788;2023-09-19T10:36:41;1.05;;;0.50;;
24663;SDS011;12791;50.992;13.788;2023-09-19T10:39:13;1.30;;;0.40;;
24663;SDS011;12791;50.992;13.788;2023-09-19T10:41:47;0.40;;;0.40;;
24663;SDS011;12791;50.992;13.788;2023-09-19T10:44:20;0.55;;;0.50;;
24663;SDS011;12791;50.992;13.788;2023-09-19T10:46:50;0.40;;;0.40;;
24663;SDS011;12791;50.992;13.788;2023-09-19T10:49:18;1.67;;;0.60;;
24663;SDS011;12791;50.992;13.788;2023-09-19T10:51:47;0.50;;;0.50;;
24663;SDS011;12791;50.992;13.788;2023-09-19T10:54:22;0.60;;;0.60;;
24663;SDS011;12791;50.992;13.788;2023-09-19T10:56:51;0.47;;;0.40;;
24663;SDS011;12791;50.992;13.788;2023-09-19T10:59:23;0.50;;;0.40;;
24663;SDS011;12791;50.992;13.788;2023-09-19T11:01:59;0.80;;;0.40;;
24663;SDS011;12791;50.992;13.788;2023-09-19T11:04:42;1.03;;;0.40;;
24663;SDS011;12791;50.992;13.788;2023-09-19T11:07:14;0.50;;;0.50;;
24663;SDS011;12791;50.992;13.788;2023-09-19T11:09:45;1.02;;;0.50;;
24663;SDS011;12791;50.992;13.788;2023-09-19T11:24:31;0.80;;;0.50;;
24663;SDS011;12791;50.992;13.788;2023-09-19T11:27:14;1.00;;;0.60;;
24663;SDS011;12791;50.992;13.788;2023-09-19T11:29:42;1.90;;;0.75;;
24663;SDS011;12791;50.992;13.788;2023-09-19T11:32:10;0.50;;;0.50;;
24663;SDS011;12791;50.992;13.788;2023-09-19T11:34:37;0.63;;;0.50;;
24663;SDS011;12791;50.992;13.788;2023-09-19T11:40:34;1.13;;;0.63;;
24663;SDS011;12791;50.992;13.788;2023-09-19T11:46:05;0.77;;;0.70;;
24663;SDS011;12791;50.992;13.788;2023-09-19T11:48:32;1.10;;;0.50;;
24663;SDS011;12791;50.992;13.788;2023-09-19T11:51:09;0.63;;;0.60;;
24663;SDS011;12791;50.992;13.788;2023-09-19T11:53:48;0.52;;;0.52;;
24663;SDS011;12791;50.992;13.788;2023-09-19T11:56:18;0.52;;;0.50;;
24663;SDS011;12791;50.992;13.788;2023-09-19T11:58:48;0.80;;;0.57;;
24663;SDS011;12791;50.992;13.788;2023-09-19T12:02:00;0.50;;;0.50;;
24663;SDS011;12791;50.992;13.788;2023-09-19T12:07:00;0.57;;;0.57;;
24663;SDS011;12791;50.992;13.788;2023-09-19T12:09:27;1.17;;;0.70;;
24663;SDS011;12791;50.992;13.788;2023-09-19T12:11:55;1.30;;;0.60;;
24663;SDS011;12791;50.992;13.788;2023-09-19T12:14:23;0.73;;;0.63;;
24663;SDS011;12791;50.992;13.788;2023-09-19T12:16:54;1.08;;;0.60;;
24663;SDS011;12791;50.992;13.788;2023-09-19T12:19:22;1.15;;;0.70;;
24663;SDS011;12791;50.992;13.788;2023-09-19T12:21:59;0.50;;;0.50;;
24663;SDS011;12791;50.992;13.788;2023-09-19T12:24:30;1.02;;;0.50;;
24663;SDS011;12791;50.992;13.788;2023-09-19T12:27:02;0.47;;;0.47;;
24663;SDS011;12791;50.992;13.788;2023-09-19T12:29:41;0.70;;;0.70;;
24663;SDS011;12791;50.992;13.788;2023-09-19T12:32:08;1.27;;;0.70;;
24663;SDS011;12791;50.992;13.788;2023-09-19T12:34:36;0.75;;;0.60;;
24663;SDS011;12791;50.992;13.788;2023-09-19T12:37:07;1.52;;;0.75;;
24663;SDS011;12791;50.992;13.788;2023-09-19T12:39:41;0.50;;;0.50;;
24663;SDS011;12791;50.992;13.788;2023-09-19T12:42:15;0.50;;;0.50;;
24663;SDS011;12791;50.992;13.788;2023-09-19T12:44:43;0.50;;;0.50;;
24663;SDS011;12791;50.992;13.788;2023-09-19T12:47:13;1.90;;;0.60;;
24663;SDS011;12791;50.992;13.788;2023-09-19T12:52:42;1.75;;;0.60;;
24663;SDS011;12791;50.992;13.788;2023-09-19T12:55:25;0.85;;;0.60;;
24663;SDS011;12791;50.992;13.788;2023-09-19T12:58:01;0.55;;;0.55;;
24663;SDS011;12791;50.992;13.788;2023-09-19T13:00:35;0.40;;;0.40;;
24663;SDS011;12791;50.992;13.788;2023-09-19T13:03:16;0.73;;;0.60;;
24663;SDS011;12791;50.992;13.788;2023-09-19T13:05:48;1.25;;;0.60;;
24663;SDS011;12791;50.992;13.788;2023-09-19T13:08:17;0.93;;;0.43;;
24663;SDS011;12791;50.992;13.788;2023-09-19T13:11:01;1.15;;;0.50;;
24663;SDS011;12791;50.992;13.788;2023-09-19T13:13:33;0.80;;;0.60;;
24663;SDS011;12791;50.992;13.788;2023-09-19T13:16:01;1.20;;;0.77;;
24663;SDS011;12791;50.992;13.788;2023-09-19T13:18:29;0.60;;;0.50;;
24663;SDS011;12791;50.992;13.788;2023-09-19T13:21:07;0.95;;;0.70;;
24663;SDS011;12791;50.992;13.788;2023-09-19T13:23:40;1.05;;;0.60;;
24663;SDS011;12791;50.992;13.788;2023-09-19T13:26:08;0.60;;;0.60;;
24663;SDS011;12791;50.992;13.788;2023-09-19T13:28:37;0.65;;;0.63;;
24663;SDS011;12791;50.992;13.788;2023-09-19T13:31:04;0.85;;;0.60;;
24663;SDS011;12791;50.992;13.788;2023-09-19T13:33:31;0.88;;;0.68;;
24663;SDS011;12791;50.992;13.788;2023-09-19T13:36:00;0.50;;;0.50;;
24663;SDS011;12791;50.992;13.788;2023-09-19T13:38:27;0.95;;;0.70;;
24663;SDS011;12791;50.992;13.788;2023-09-19T13:40:54;1.38;;;0.70;;
24663;SDS011;12791;50.992;13.788;2023-09-19T13:43:21;0.82;;;0.60;;
24663;SDS011;12791;50.992;13.788;2023-09-19T13:45:49;0.80;;;0.65;;
24663;SDS011;12791;50.992;13.788;2023-09-19T13:48:16;1.30;;;0.70;;
24663;SDS011;12791;50.992;13.788;2023-09-19T13:50:45;0.60;;;0.60;;
24663;SDS011;12791;50.992;13.788;2023-09-19T13:53:12;0.50;;;0.50;;
24663;SDS011;12791;50.992;13.788;2023-09-19T13:55:38;0.70;;;0.60;;
24663;SDS011;12791;50.992;13.788;2023-09-19T13:58:06;0.90;;;0.68;;
24663;SDS011;12791;50.992;13.788;2023-09-19T14:00:35;0.60;;;0.60;;
24663;SDS011;12791;50.992;13.788;2023-09-19T14:03:05;0.70;;;0.70;;
24663;SDS011;12791;50.992;13.788;2023-09-19T14:05:31;0.85;;;0.82;;
24663;SDS011;12791;50.992;13.788;2023-09-19T14:07:58;0.93;;;0.80;;
24663;SDS011;12791;50.992;13.788;2023-09-19T14:10:25;1.67;;;0.70;;
24663;SDS011;12791;50.992;13.788;2023-09-19T14:12:52;1.75;;;0.60;;
24663;SDS011;12791;50.992;13.788;2023-09-19T14:15:19;1.15;;;0.75;;
24663;SDS011;12791;50.992;13.788;2023-09-19T14:17:54;0.90;;;0.90;;
24663;SDS011;12791;50.992;13.788;2023-09-19T14:20:22;1.77;;;0.80;;
24663;SDS011;12791;50.992;13.788;2023-09-19T14:22:49;0.70;;;0.70;;
24663;SDS011;12791;50.992;13.788;2023-09-19T14:25:16;1.30;;;0.80;;
24663;SDS011;12791;50.992;13.788;2023-09-19T14:27:43;0.95;;;0.85;;
24663;SDS011;12791;50.992;13.788;2023-09-19T14:30:10;0.93;;;0.93;;
24663;SDS011;12791;50.992;13.788;2023-09-19T14:32:37;1.20;;;0.95;;
24663;SDS011;12791;50.992;13.788;2023-09-19T14:35:04;0.68;;;0.68;;
24663;SDS011;12791;50.992;13.788;2023-09-19T14:37:33;1.08;;;0.95;;
24663;SDS011;12791;50.992;13.788;2023-09-19T14:39:59;0.95;;;0.80;;
24663;SDS011;12791;50.992;13.788;2023-09-19T14:42:33;1.20;;;0.90;;
24663;SDS011;12791;50.992;13.788;2023-09-19T14:45:01;2.42;;;0.80;;
24663;SDS011;12791;50.992;13.788;2023-09-19T14:47:27;0.68;;;0.68;;
24663;SDS011;12791;50.992;13.788;2023-09-19T14:49:54;1.15;;;0.80;;
24663;SDS011;12791;50.992;13.788;2023-09-19T14:52:21;0.90;;;0.90;;
24663;SDS011;12791;50.992;13.788;2023-09-19T14:54:49;1.10;;;1.00;;
24663;SDS011;12791;50.992;13.788;2023-09-19T14:57:16;1.20;;;1.10;;
24663;SDS011;12791;50.992;13.788;2023-09-19T14:59:44;1.05;;;0.95;;
24663;SDS011;12791;50.992;13.788;2023-09-19T15:02:10;1.30;;;0.90;;
24663;SDS011;12791;50.992;13.788;2023-09-19T15:04:38;1.35;;;1.10;;
24663;SDS011;12791;50.992;13.788;2023-09-19T15:07:05;1.00;;;1.00;;
24663;SDS011;12791;50.992;13.788;2023-09-19T15:09:32;1.60;;;1.02;;
24663;SDS011;12791;50.992;13.788;2023-09-19T15:12:00;0.98;;;0.88;;
24663;SDS011;12791;50.992;13.788;2023-09-19T15:14:27;0.80;;;0.80;;
24663;SDS011;12791;50.992;13.788;2023-09-19T15:16:54;1.55;;;0.85;;
24663;SDS011;12791;50.992;13.788;2023-09-19T15:19:21;1.73;;;0.80;;
24663;SDS011;12791;50.992;13.788;2023-09-19T15:21:48;1.33;;;0.98;;